sensor_id;sensor_type;location;lat;lon;timestamp;temperature;humidity
22185;DHT22;11258;52.516;13.318;2022-12-24T00:01:33;6.50;99.90
22185;DHT22;11258;52.516;13.318;2022-12-24T00:03:58;6.50;99.90
22185;DHT22;11258;52.516;13.318;2022-12-24T00:06:24;6.50;99.90
22185;DHT22;11258;52.516;13.318;2022-12-24T00:08:50;6.50;99.90
22185;DHT22;11258;52.516;13.318;2022-12-24T00:11:17;6.50;99.90
22185;DHT22;11258;52.516;13.318;2022-12-24T00:13:42;6.50;99.90
22185;DHT22;11258;52.516;13.318;2022-12-24T00:16:09;6.50;99.90
22185;DHT22;11258;52.516;13.318;2022-12-24T00:18:34;6.50;99.90
22185;DHT22;11258;52.516;13.318;2022-12-24T00:21:00;6.40;99.90
22185;DHT22;11258;52.516;13.318;2022-12-24T00:23:28;6.40;99.90
22185;DHT22;11258;52.516;13.318;2022-12-24T00:25:53;6.40;99.90
22185;DHT22;11258;52.516;13.318;2022-12-24T00:28:20;6.40;99.90
22185;DHT22;11258;52.516;13.318;2022-12-24T00:30:46;6.30;99.90
22185;DHT22;11258;52.516;13.318;2022-12-24T00:33:11;6.30;99.90
22185;DHT22;11258;52.516;13.318;2022-12-24T00:35:38;6.30;99.90
22185;DHT22;11258;52.516;13.318;2022-12-24T00:38:04;6.30;99.90
22185;DHT22;11258;52.516;13.318;2022-12-24T00:40:30;6.30;99.90
22185;DHT22;11258;52.516;13.318;2022-12-24T00:42:56;6.30;99.90
22185;DHT22;11258;52.516;13.318;2022-12-24T00:45:22;6.30;99.90
22185;DHT22;11258;52.516;13.318;2022-12-24T00:47:48;6.20;99.90
22185;DHT22;11258;52.516;13.318;2022-12-24T00:50:14;6.20;99.90
22185;DHT22;11258;52.516;13.318;2022-12-24T00:52:40;6.20;99.90
22185;DHT22;11258;52.516;13.318;2022-12-24T00:55:07;6.30;99.90
22185;DHT22;11258;52.516;13.318;2022-12-24T00:57:33;6.30;99.90
22185;DHT22;11258;52.516;13.318;2022-12-24T00:59:59;6.20;99.90
22185;DHT22;11258;52.516;13.318;2022-12-24T01:02:24;6.20;99.90
22185;DHT22;11258;52.516;13.318;2022-12-24T01:04:50;6.20;99.90
22185;DHT22;11258;52.516;13.318;2022-12-24T01:07:35;6.20;99.90
22185;DHT22;11258;52.516;13.318;2022-12-24T01:10:01;6.20;99.90
22185;DHT22;11258;52.516;13.318;2022-12-24T01:12:27;6.20;99.90
22185;DHT22;11258;52.516;13.318;2022-12-24T01:14:52;6.20;99.90
22185;DHT22;11258;52.516;13.318;2022-12-24T01:17:18;6.20;99.90
22185;DHT22;11258;52.516;13.318;2022-12-24T01:19:44;6.20;99.90
22185;DHT22;11258;52.516;13.318;2022-12-24T01:22:09;6.30;99.90
22185;DHT22;11258;52.516;13.318;2022-12-24T01:24:35;6.20;99.90
22185;DHT22;11258;52.516;13.318;2022-12-24T01:27:01;6.20;99.90
22185;DHT22;11258;52.516;13.318;2022-12-24T01:29:26;6.20;99.90
22185;DHT22;11258;52.516;13.318;2022-12-24T01:31:52;6.20;99.90
22185;DHT22;11258;52.516;13.318;2022-12-24T01:34:17;6.20;99.90
22185;DHT22;11258;52.516;13.318;2022-12-24T01:36:43;6.20;99.90
22185;DHT22;11258;52.516;13.318;2022-12-24T01:39:08;6.20;99.90
22185;DHT22;11258;52.516;13.318;2022-12-24T01:41:34;6.20;99.90
22185;DHT22;11258;52.516;13.318;2022-12-24T01:44:30;6.30;99.90
22185;DHT22;11258;52.516;13.318;2022-12-24T01:47:26;6.30;99.90
22185;DHT22;11258;52.516;13.318;2022-12-24T01:49:57;6.30;99.90
22185;DHT22;11258;52.516;13.318;2022-12-24T01:52:30;6.30;99.90
22185;DHT22;11258;52.516;13.318;2022-12-24T01:55:00;6.20;99.90
22185;DHT22;11258;52.516;13.318;2022-12-24T01:57:34;6.30;99.90
22185;DHT22;11258;52.516;13.318;2022-12-24T02:00:06;6.30;99.90
22185;DHT22;11258;52.516;13.318;2022-12-24T02:02:33;6.30;99.90
22185;DHT22;11258;52.516;13.318;2022-12-24T02:05:14;6.30;99.90
22185;DHT22;11258;52.516;13.318;2022-12-24T02:07:41;6.40;99.90
22185;DHT22;11258;52.516;13.318;2022-12-24T02:10:10;6.30;99.90
22185;DHT22;11258;52.516;13.318;2022-12-24T02:12:36;6.30;99.90
22185;DHT22;11258;52.516;13.318;2022-12-24T02:15:04;6.30;99.90
22185;DHT22;11258;52.516;13.318;2022-12-24T02:31:47;6.30;99.90
22185;DHT22;11258;52.516;13.318;2022-12-24T02:34:37;6.30;99.90
22185;DHT22;11258;52.516;13.318;2022-12-24T02:37:04;6.30;99.90
22185;DHT22;11258;52.516;13.318;2022-12-24T02:39:46;6.30;99.90
22185;DHT22;11258;52.516;13.318;2022-12-24T02:42:18;6.30;99.90
22185;DHT22;11258;52.516;13.318;2022-12-24T02:44:51;6.30;99.90
22185;DHT22;11258;52.516;13.318;2022-12-24T02:47:20;6.30;99.90
22185;DHT22;11258;52.516;13.318;2022-12-24T02:49:47;6.40;99.90
22185;DHT22;11258;52.516;13.318;2022-12-24T02:54:54;6.30;99.90
22185;DHT22;11258;52.516;13.318;2022-12-24T03:00:24;6.30;99.90
22185;DHT22;11258;52.516;13.318;2022-12-24T03:03:43;6.40;99.90
22185;DHT22;11258;52.516;13.318;2022-12-24T03:06:32;6.30;99.90
22185;DHT22;11258;52.516;13.318;2022-12-24T03:09:17;6.40;99.90
22185;DHT22;11258;52.516;13.318;2022-12-24T03:11:52;6.30;99.90
22185;DHT22;11258;52.516;13.318;2022-12-24T03:14:20;6.30;99.90
22185;DHT22;11258;52.516;13.318;2022-12-24T03:16:47;6.30;99.90
22185;DHT22;11258;52.516;13.318;2022-12-24T03:19:13;6.30;99.90
22185;DHT22;11258;52.516;13.318;2022-12-24T03:21:40;6.30;99.90
22185;DHT22;11258;52.516;13.318;2022-12-24T03:24:08;6.30;99.90
22185;DHT22;11258;52.516;13.318;2022-12-24T03:26:35;6.30;99.90
22185;DHT22;11258;52.516;13.318;2022-12-24T03:29:04;6.30;99.90
22185;DHT22;11258;52.516;13.318;2022-12-24T03:31:58;6.30;99.90
22185;DHT22;11258;52.516;13.318;2022-12-24T03:34:24;6.30;99.90
22185;DHT22;11258;52.516;13.318;2022-12-24T03:36:50;6.30;99.90
22185;DHT22;11258;52.516;13.318;2022-12-24T03:39:15;6.30;99.90
22185;DHT22;11258;52.516;13.318;2022-12-24T03:41:41;6.40;99.90
22185;DHT22;11258;52.516;13.318;2022-12-24T03:44:07;6.30;99.90
22185;DHT22;11258;52.516;13.318;2022-12-24T03:46:32;6.30;99.90
22185;DHT22;11258;52.516;13.318;2022-12-24T03:48:58;6.40;99.90
22185;DHT22;11258;52.516;13.318;2022-12-24T03:51:24;6.30;99.90
22185;DHT22;11258;52.516;13.318;2022-12-24T03:53:55;6.40;99.90
22185;DHT22;11258;52.516;13.318;2022-12-24T03:56:21;6.40;99.90
22185;DHT22;11258;52.516;13.318;2022-12-24T03:58:47;6.40;99.90
22185;DHT22;11258;52.516;13.318;2022-12-24T04:01:14;6.40;99.90
22185;DHT22;11258;52.516;13.318;2022-12-24T04:03:39;6.40;99.90
22185;DHT22;11258;52.516;13.318;2022-12-24T04:06:13;6.40;99.90
22185;DHT22;11258;52.516;13.318;2022-12-24T04:08:40;6.40;99.90
22185;DHT22;11258;52.516;13.318;2022-12-24T04:11:10;6.30;99.90
22185;DHT22;11258;52.516;13.318;2022-12-24T04:13:36;6.40;99.90
22185;DHT22;11258;52.516;13.318;2022-12-24T04:16:05;6.30;99.90
22185;DHT22;11258;52.516;13.318;2022-12-24T04:18:31;6.30;99.90
22185;DHT22;11258;52.516;13.318;2022-12-24T04:20:57;6.40;99.90
22185;DHT22;11258;52.516;13.318;2022-12-24T04:23:23;6.40;99.90
22185;DHT22;11258;52.516;13.318;2022-12-24T04:25:49;6.30;99.90
22185;DHT22;11258;52.516;13.318;2022-12-24T04:28:15;6.30;99.90
22185;DHT22;11258;52.516;13.318;2022-12-24T04:30:41;6.30;99.90
22185;DHT22;11258;52.516;13.318;2022-12-24T04:33:07;6.40;99.90
22185;DHT22;11258;52.516;13.318;2022-12-24T04:35:33;6.30;99.90
22185;DHT22;11258;52.516;13.318;2022-12-24T04:37:58;6.40;99.90
22185;DHT22;11258;52.516;13.318;2022-12-24T04:40:24;6.30;99.90
22185;DHT22;11258;52.516;13.318;2022-12-24T04:42:50;6.30;99.90
22185;DHT22;11258;52.516;13.318;2022-12-24T04:45:17;6.40;99.90
22185;DHT22;11258;52.516;13.318;2022-12-24T04:47:42;6.40;99.90
22185;DHT22;11258;52.516;13.318;2022-12-24T04:50:09;6.50;99.90
22185;DHT22;11258;52.516;13.318;2022-12-24T04:52:35;6.50;99.90
22185;DHT22;11258;52.516;13.318;2022-12-24T04:55:01;6.50;99.90
22185;DHT22;11258;52.516;13.318;2022-12-24T04:57:27;6.40;99.90
22185;DHT22;11258;52.516;13.318;2022-12-24T04:59:55;6.40;99.90
22185;DHT22;11258;52.516;13.318;2022-12-24T05:02:20;6.40;99.90
22185;DHT22;11258;52.516;13.318;2022-12-24T05:04:46;6.40;99.90
22185;DHT22;11258;52.516;13.318;2022-12-24T05:07:11;6.40;99.90
22185;DHT22;11258;52.516;13.318;2022-12-24T05:09:37;6.40;99.90
22185;DHT22;11258;52.516;13.318;2022-12-24T05:12:03;6.40;99.90
22185;DHT22;11258;52.516;13.318;2022-12-24T05:14:28;6.40;99.90
22185;DHT22;11258;52.516;13.318;2022-12-24T05:16:54;6.30;99.90
22185;DHT22;11258;52.516;13.318;2022-12-24T05:19:19;6.30;99.90
22185;DHT22;11258;52.516;13.318;2022-12-24T05:21:45;6.30;99.90
22185;DHT22;11258;52.516;13.318;2022-12-24T05:24:31;6.30;99.90
22185;DHT22;11258;52.516;13.318;2022-12-24T05:27:15;6.30;99.90
22185;DHT22;11258;52.516;13.318;2022-12-24T05:29:40;6.30;99.90
22185;DHT22;11258;52.516;13.318;2022-12-24T05:32:06;6.30;99.90
22185;DHT22;11258;52.516;13.318;2022-12-24T05:34:31;6.30;99.90
22185;DHT22;11258;52.516;13.318;2022-12-24T05:36:57;6.30;99.90
22185;DHT22;11258;52.516;13.318;2022-12-24T05:39:23;6.30;99.90
22185;DHT22;11258;52.516;13.318;2022-12-24T05:41:48;6.30;99.90
22185;DHT22;11258;52.516;13.318;2022-12-24T05:44:14;6.20;99.90
22185;DHT22;11258;52.516;13.318;2022-12-24T05:46:41;6.30;99.90
22185;DHT22;11258;52.516;13.318;2022-12-24T05:49:06;6.30;99.90
22185;DHT22;11258;52.516;13.318;2022-12-24T05:51:32;6.20;99.90
22185;DHT22;11258;52.516;13.318;2022-12-24T05:53:58;6.20;99.90
22185;DHT22;11258;52.516;13.318;2022-12-24T05:56:23;6.10;99.90
22185;DHT22;11258;52.516;13.318;2022-12-24T05:58:50;6.20;99.90
22185;DHT22;11258;52.516;13.318;2022-12-24T06:01:17;6.20;99.90
22185;DHT22;11258;52.516;13.318;2022-12-24T06:03:43;6.20;99.90
22185;DHT22;11258;52.516;13.318;2022-12-24T06:06:14;6.20;99.90
22185;DHT22;11258;52.516;13.318;2022-12-24T06:08:42;6.20;99.90
22185;DHT22;11258;52.516;13.318;2022-12-24T06:11:10;6.20;99.90
22185;DHT22;11258;52.516;13.318;2022-12-24T06:13:37;6.10;99.90
22185;DHT22;11258;52.516;13.318;2022-12-24T06:16:04;6.10;99.90
22185;DHT22;11258;52.516;13.318;2022-12-24T06:18:31;6.10;99.90
22185;DHT22;11258;52.516;13.318;2022-12-24T06:20:58;6.20;99.90
22185;DHT22;11258;52.516;13.318;2022-12-24T06:23:23;6.10;99.90
22185;DHT22;11258;52.516;13.318;2022-12-24T06:25:50;6.20;99.90
22185;DHT22;11258;52.516;13.318;2022-12-24T06:28:16;6.20;99.90
22185;DHT22;11258;52.516;13.318;2022-12-24T06:30:47;6.20;99.90
22185;DHT22;11258;52.516;13.318;2022-12-24T06:33:13;6.20;99.90
22185;DHT22;11258;52.516;13.318;2022-12-24T06:35:39;6.20;99.90
22185;DHT22;11258;52.516;13.318;2022-12-24T06:38:04;6.20;99.90
22185;DHT22;11258;52.516;13.318;2022-12-24T06:40:30;6.10;99.90
22185;DHT22;11258;52.516;13.318;2022-12-24T06:42:56;6.20;99.90
22185;DHT22;11258;52.516;13.318;2022-12-24T06:45:21;6.10;99.90
22185;DHT22;11258;52.516;13.318;2022-12-24T06:47:47;6.00;99.90
22185;DHT22;11258;52.516;13.318;2022-12-24T06:50:13;6.00;99.90
22185;DHT22;11258;52.516;13.318;2022-12-24T06:52:38;6.00;99.90
22185;DHT22;11258;52.516;13.318;2022-12-24T06:55:04;6.00;99.90
22185;DHT22;11258;52.516;13.318;2022-12-24T07:00:16;6.10;99.90
22185;DHT22;11258;52.516;13.318;2022-12-24T07:02:43;6.10;99.90
22185;DHT22;11258;52.516;13.318;2022-12-24T07:05:10;6.10;99.90
22185;DHT22;11258;52.516;13.318;2022-12-24T07:07:37;6.00;99.90
22185;DHT22;11258;52.516;13.318;2022-12-24T07:10:03;6.10;99.90
22185;DHT22;11258;52.516;13.318;2022-12-24T07:12:28;6.10;99.90
22185;DHT22;11258;52.516;13.318;2022-12-24T07:14:54;6.10;99.90
22185;DHT22;11258;52.516;13.318;2022-12-24T07:17:20;6.10;99.90
22185;DHT22;11258;52.516;13.318;2022-12-24T07:19:45;6.20;99.90
22185;DHT22;11258;52.516;13.318;2022-12-24T07:22:11;6.20;99.90
22185;DHT22;11258;52.516;13.318;2022-12-24T07:24:36;6.10;99.90
22185;DHT22;11258;52.516;13.318;2022-12-24T07:27:02;6.10;99.90
22185;DHT22;11258;52.516;13.318;2022-12-24T07:29:27;6.10;99.90
22185;DHT22;11258;52.516;13.318;2022-12-24T07:31:53;6.20;99.90
22185;DHT22;11258;52.516;13.318;2022-12-24T07:34:19;6.20;99.90
22185;DHT22;11258;52.516;13.318;2022-12-24T07:36:44;6.20;99.90
22185;DHT22;11258;52.516;13.318;2022-12-24T07:39:10;6.10;99.90
22185;DHT22;11258;52.516;13.318;2022-12-24T07:41:36;6.20;99.90
22185;DHT22;11258;52.516;13.318;2022-12-24T07:44:01;6.10;99.90
22185;DHT22;11258;52.516;13.318;2022-12-24T07:46:27;6.10;99.90
22185;DHT22;11258;52.516;13.318;2022-12-24T07:48:52;6.00;99.90
22185;DHT22;11258;52.516;13.318;2022-12-24T07:51:18;6.10;99.90
22185;DHT22;11258;52.516;13.318;2022-12-24T07:53:44;6.20;99.90
22185;DHT22;11258;52.516;13.318;2022-12-24T07:56:15;6.10;99.90
22185;DHT22;11258;52.516;13.318;2022-12-24T07:58:41;6.20;99.90
22185;DHT22;11258;52.516;13.318;2022-12-24T08:01:07;6.10;99.90
22185;DHT22;11258;52.516;13.318;2022-12-24T08:03:33;6.20;99.90
22185;DHT22;11258;52.516;13.318;2022-12-24T08:05:59;6.20;99.90
22185;DHT22;11258;52.516;13.318;2022-12-24T08:08:24;6.10;99.90
22185;DHT22;11258;52.516;13.318;2022-12-24T08:10:50;6.10;99.90
22185;DHT22;11258;52.516;13.318;2022-12-24T08:13:16;6.10;99.90
22185;DHT22;11258;52.516;13.318;2022-12-24T08:15:42;6.20;99.90
22185;DHT22;11258;52.516;13.318;2022-12-24T08:18:09;6.10;99.90
22185;DHT22;11258;52.516;13.318;2022-12-24T08:20:37;6.10;99.90
22185;DHT22;11258;52.516;13.318;2022-12-24T08:23:03;6.10;99.90
22185;DHT22;11258;52.516;13.318;2022-12-24T08:25:29;6.10;99.90
22185;DHT22;11258;52.516;13.318;2022-12-24T08:27:56;6.20;99.90
22185;DHT22;11258;52.516;13.318;2022-12-24T08:30:21;6.20;99.90
22185;DHT22;11258;52.516;13.318;2022-12-24T08:32:47;6.20;99.90
22185;DHT22;11258;52.516;13.318;2022-12-24T08:35:13;6.20;99.90
22185;DHT22;11258;52.516;13.318;2022-12-24T08:37:39;6.20;99.90
22185;DHT22;11258;52.516;13.318;2022-12-24T08:40:06;6.10;99.90
22185;DHT22;11258;52.516;13.318;2022-12-24T08:42:31;6.20;99.90
22185;DHT22;11258;52.516;13.318;2022-12-24T08:44:57;6.20;99.90
22185;DHT22;11258;52.516;13.318;2022-12-24T08:47:23;6.20;99.90
22185;DHT22;11258;52.516;13.318;2022-12-24T08:49:48;6.20;99.90
22185;DHT22;11258;52.516;13.318;2022-12-24T08:52:14;6.20;99.90
22185;DHT22;11258;52.516;13.318;2022-12-24T08:54:39;6.10;99.90
22185;DHT22;11258;52.516;13.318;2022-12-24T08:57:05;6.10;99.90
22185;DHT22;11258;52.516;13.318;2022-12-24T08:59:30;6.10;99.90
22185;DHT22;11258;52.516;13.318;2022-12-24T09:01:56;6.20;99.90
22185;DHT22;11258;52.516;13.318;2022-12-24T09:04:22;6.30;99.90
22185;DHT22;11258;52.516;13.318;2022-12-24T09:06:47;6.30;99.90
22185;DHT22;11258;52.516;13.318;2022-12-24T09:09:13;6.30;99.90
22185;DHT22;11258;52.516;13.318;2022-12-24T09:11:38;6.30;99.90
22185;DHT22;11258;52.516;13.318;2022-12-24T09:14:04;6.30;99.90
22185;DHT22;11258;52.516;13.318;2022-12-24T09:16:29;6.40;99.90
22185;DHT22;11258;52.516;13.318;2022-12-24T09:18:56;6.40;99.90
22185;DHT22;11258;52.516;13.318;2022-12-24T09:21:22;6.30;99.90
22185;DHT22;11258;52.516;13.318;2022-12-24T09:23:47;6.30;99.90
22185;DHT22;11258;52.516;13.318;2022-12-24T09:26:16;6.30;99.90
22185;DHT22;11258;52.516;13.318;2022-12-24T09:28:42;6.40;99.90
22185;DHT22;11258;52.516;13.318;2022-12-24T09:31:09;6.40;99.90
22185;DHT22;11258;52.516;13.318;2022-12-24T09:33:37;6.50;99.90
22185;DHT22;11258;52.516;13.318;2022-12-24T09:36:04;6.50;99.90
22185;DHT22;11258;52.516;13.318;2022-12-24T09:38:31;6.50;99.90
22185;DHT22;11258;52.516;13.318;2022-12-24T09:40:58;6.50;99.90
22185;DHT22;11258;52.516;13.318;2022-12-24T09:43:26;6.50;99.90
22185;DHT22;11258;52.516;13.318;2022-12-24T09:46:23;6.50;99.90
22185;DHT22;11258;52.516;13.318;2022-12-24T09:49:03;6.60;99.90
22185;DHT22;11258;52.516;13.318;2022-12-24T09:51:43;6.70;99.90
22185;DHT22;11258;52.516;13.318;2022-12-24T09:54:12;6.70;99.90
22185;DHT22;11258;52.516;13.318;2022-12-24T09:56:42;6.70;99.90
22185;DHT22;11258;52.516;13.318;2022-12-24T09:59:40;6.70;99.90
22185;DHT22;11258;52.516;13.318;2022-12-24T10:02:10;6.80;99.90
22185;DHT22;11258;52.516;13.318;2022-12-24T10:04:36;6.80;99.90
22185;DHT22;11258;52.516;13.318;2022-12-24T10:10:08;6.90;99.90
22185;DHT22;11258;52.516;13.318;2022-12-24T10:12:55;7.00;99.90
22185;DHT22;11258;52.516;13.318;2022-12-24T10:15:38;7.10;99.90
22185;DHT22;11258;52.516;13.318;2022-12-24T10:24:27;7.20;99.90
22185;DHT22;11258;52.516;13.318;2022-12-24T10:29:11;7.30;99.90
22185;DHT22;11258;52.516;13.318;2022-12-24T10:32:00;7.30;99.90
22185;DHT22;11258;52.516;13.318;2022-12-24T10:34:42;7.30;99.90
22185;DHT22;11258;52.516;13.318;2022-12-24T10:37:15;7.30;99.90
22185;DHT22;11258;52.516;13.318;2022-12-24T10:39:42;7.30;99.90
22185;DHT22;11258;52.516;13.318;2022-12-24T10:42:08;7.30;99.90
22185;DHT22;11258;52.516;13.318;2022-12-24T10:44:35;7.40;99.90
22185;DHT22;11258;52.516;13.318;2022-12-24T10:47:00;7.40;99.90
22185;DHT22;11258;52.516;13.318;2022-12-24T10:49:39;7.40;99.90
22185;DHT22;11258;52.516;13.318;2022-12-24T10:52:12;7.40;99.90
22185;DHT22;11258;52.516;13.318;2022-12-24T10:55:19;7.50;99.90
22185;DHT22;11258;52.516;13.318;2022-12-24T10:57:57;7.40;99.90
22185;DHT22;11258;52.516;13.318;2022-12-24T11:00:24;7.50;99.90
22185;DHT22;11258;52.516;13.318;2022-12-24T11:05:37;7.50;99.90
22185;DHT22;11258;52.516;13.318;2022-12-24T11:10:57;7.50;99.90
22185;DHT22;11258;52.516;13.318;2022-12-24T11:13:33;7.50;99.90
22185;DHT22;11258;52.516;13.318;2022-12-24T11:18:51;7.50;99.90
22185;DHT22;11258;52.516;13.318;2022-12-24T11:21:20;7.60;99.90
22185;DHT22;11258;52.516;13.318;2022-12-24T11:26:36;7.60;99.90
22185;DHT22;11258;52.516;13.318;2022-12-24T11:29:22;7.70;99.90
22185;DHT22;11258;52.516;13.318;2022-12-24T11:31:48;7.70;99.90
22185;DHT22;11258;52.516;13.318;2022-12-24T11:34:28;7.80;99.90
22185;DHT22;11258;52.516;13.318;2022-12-24T11:39:46;7.70;99.90
22185;DHT22;11258;52.516;13.318;2022-12-24T11:42:35;7.80;99.90
22185;DHT22;11258;52.516;13.318;2022-12-24T11:45:20;7.70;99.90
22185;DHT22;11258;52.516;13.318;2022-12-24T11:47:46;7.80;99.90
22185;DHT22;11258;52.516;13.318;2022-12-24T11:53:17;7.80;99.90
22185;DHT22;11258;52.516;13.318;2022-12-24T11:55:54;7.90;99.90
22185;DHT22;11258;52.516;13.318;2022-12-24T12:01:24;7.90;99.90
22185;DHT22;11258;52.516;13.318;2022-12-24T12:03:53;8.00;99.90
22185;DHT22;11258;52.516;13.318;2022-12-24T12:06:46;8.00;99.90
22185;DHT22;11258;52.516;13.318;2022-12-24T12:09:36;8.00;99.90
22185;DHT22;11258;52.516;13.318;2022-12-24T12:12:16;8.00;99.90
22185;DHT22;11258;52.516;13.318;2022-12-24T12:14:49;8.00;99.90
22185;DHT22;11258;52.516;13.318;2022-12-24T12:17:38;8.10;99.90
22185;DHT22;11258;52.516;13.318;2022-12-24T12:20:24;8.20;99.90
22185;DHT22;11258;52.516;13.318;2022-12-24T12:25:32;8.20;99.90
22185;DHT22;11258;52.516;13.318;2022-12-24T12:28:02;8.20;99.90
22185;DHT22;11258;52.516;13.318;2022-12-24T12:30:29;8.30;99.90
22185;DHT22;11258;52.516;13.318;2022-12-24T12:33:02;8.30;99.90
22185;DHT22;11258;52.516;13.318;2022-12-24T12:35:35;8.40;99.90
22185;DHT22;11258;52.516;13.318;2022-12-24T12:38:08;8.50;99.90
22185;DHT22;11258;52.516;13.318;2022-12-24T12:48:53;8.30;99.90
22185;DHT22;11258;52.516;13.318;2022-12-24T12:51:38;8.40;99.90
22185;DHT22;11258;52.516;13.318;2022-12-24T12:56:50;8.40;99.90
22185;DHT22;11258;52.516;13.318;2022-12-24T12:59:28;8.40;99.90
22185;DHT22;11258;52.516;13.318;2022-12-24T13:10:50;8.50;99.90
22185;DHT22;11258;52.516;13.318;2022-12-24T13:21:44;8.60;99.90
22185;DHT22;11258;52.516;13.318;2022-12-24T13:24:21;8.60;99.90
22185;DHT22;11258;52.516;13.318;2022-12-24T13:27:06;8.70;99.90
22185;DHT22;11258;52.516;13.318;2022-12-24T13:35:00;8.70;99.90
22185;DHT22;11258;52.516;13.318;2022-12-24T13:48:32;8.70;99.90
22185;DHT22;11258;52.516;13.318;2022-12-24T13:51:16;8.70;99.90
22185;DHT22;11258;52.516;13.318;2022-12-24T13:53:45;8.70;99.90
22185;DHT22;11258;52.516;13.318;2022-12-24T14:01:35;8.70;99.90
22185;DHT22;11258;52.516;13.318;2022-12-24T14:04:05;8.70;99.90
22185;DHT22;11258;52.516;13.318;2022-12-24T14:06:34;8.70;99.90
22185;DHT22;11258;52.516;13.318;2022-12-24T14:09:08;8.80;99.90
22185;DHT22;11258;52.516;13.318;2022-12-24T14:14:36;8.70;99.90
22185;DHT22;11258;52.516;13.318;2022-12-24T14:17:12;8.70;99.90
22185;DHT22;11258;52.516;13.318;2022-12-24T14:19:45;8.70;99.90
22185;DHT22;11258;52.516;13.318;2022-12-24T14:25:20;8.60;99.90
22185;DHT22;11258;52.516;13.318;2022-12-24T14:28:03;8.60;99.90
22185;DHT22;11258;52.516;13.318;2022-12-24T14:30:30;8.60;99.90
22185;DHT22;11258;52.516;13.318;2022-12-24T14:32:56;8.60;99.90
22185;DHT22;11258;52.516;13.318;2022-12-24T14:35:26;8.60;99.90
22185;DHT22;11258;52.516;13.318;2022-12-24T14:38:12;8.50;99.90
22185;DHT22;11258;52.516;13.318;2022-12-24T14:40:59;8.60;99.90
22185;DHT22;11258;52.516;13.318;2022-12-24T14:54:38;8.50;99.90
22185;DHT22;11258;52.516;13.318;2022-12-24T15:05:28;8.50;99.90
22185;DHT22;11258;52.516;13.318;2022-12-24T15:07:59;8.50;99.90
22185;DHT22;11258;52.516;13.318;2022-12-24T15:10:34;8.50;99.90
22185;DHT22;11258;52.516;13.318;2022-12-24T15:13:04;8.50;99.90
22185;DHT22;11258;52.516;13.318;2022-12-24T15:15:31;8.40;99.90
22185;DHT22;11258;52.516;13.318;2022-12-24T15:17:57;8.40;99.90
22185;DHT22;11258;52.516;13.318;2022-12-24T15:20:25;8.40;99.90
22185;DHT22;11258;52.516;13.318;2022-12-24T15:22:55;8.30;99.90
22185;DHT22;11258;52.516;13.318;2022-12-24T15:25:30;8.30;99.90
22185;DHT22;11258;52.516;13.318;2022-12-24T15:27:56;8.20;99.90
22185;DHT22;11258;52.516;13.318;2022-12-24T15:30:26;8.20;99.90
22185;DHT22;11258;52.516;13.318;2022-12-24T15:32:56;8.20;99.90
22185;DHT22;11258;52.516;13.318;2022-12-24T15:35:51;8.10;99.90
22185;DHT22;11258;52.516;13.318;2022-12-24T15:38:41;8.10;99.90
22185;DHT22;11258;52.516;13.318;2022-12-24T15:41:19;8.10;99.90
22185;DHT22;11258;52.516;13.318;2022-12-24T15:43:47;8.10;99.90
22185;DHT22;11258;52.516;13.318;2022-12-24T15:46:22;8.00;99.90
22185;DHT22;11258;52.516;13.318;2022-12-24T15:48:49;8.00;99.90
22185;DHT22;11258;52.516;13.318;2022-12-24T15:51:29;8.00;99.90
22185;DHT22;11258;52.516;13.318;2022-12-24T15:54:02;8.00;99.90
22185;DHT22;11258;52.516;13.318;2022-12-24T15:56:43;8.00;99.90
22185;DHT22;11258;52.516;13.318;2022-12-24T15:59:38;7.90;99.90
22185;DHT22;11258;52.516;13.318;2022-12-24T16:02:37;7.90;99.90
22185;DHT22;11258;52.516;13.318;2022-12-24T16:05:32;7.90;99.90
22185;DHT22;11258;52.516;13.318;2022-12-24T16:13:38;7.80;99.90
22185;DHT22;11258;52.516;13.318;2022-12-24T16:16:08;7.80;99.90
22185;DHT22;11258;52.516;13.318;2022-12-24T16:18:51;7.70;99.90
22185;DHT22;11258;52.516;13.318;2022-12-24T16:21:27;7.70;99.90
22185;DHT22;11258;52.516;13.318;2022-12-24T16:23:55;7.70;99.90
22185;DHT22;11258;52.516;13.318;2022-12-24T16:26:22;7.70;99.90
22185;DHT22;11258;52.516;13.318;2022-12-24T16:28:48;7.70;99.90
22185;DHT22;11258;52.516;13.318;2022-12-24T16:31:41;7.70;99.90
22185;DHT22;11258;52.516;13.318;2022-12-24T16:34:11;7.70;99.90
22185;DHT22;11258;52.516;13.318;2022-12-24T16:36:43;7.70;99.90
22185;DHT22;11258;52.516;13.318;2022-12-24T16:39:20;7.70;99.90
22185;DHT22;11258;52.516;13.318;2022-12-24T16:41:53;7.70;99.90
22185;DHT22;11258;52.516;13.318;2022-12-24T16:44:39;7.70;99.90
22185;DHT22;11258;52.516;13.318;2022-12-24T16:47:06;7.60;99.90
22185;DHT22;11258;52.516;13.318;2022-12-24T16:49:36;7.60;99.90
22185;DHT22;11258;52.516;13.318;2022-12-24T16:52:06;7.60;99.90
22185;DHT22;11258;52.516;13.318;2022-12-24T16:54:32;7.50;99.90
22185;DHT22;11258;52.516;13.318;2022-12-24T16:56:58;7.50;99.90
22185;DHT22;11258;52.516;13.318;2022-12-24T16:59:23;7.50;99.90
22185;DHT22;11258;52.516;13.318;2022-12-24T17:01:50;7.50;99.90
22185;DHT22;11258;52.516;13.318;2022-12-24T17:04:16;7.50;99.90
22185;DHT22;11258;52.516;13.318;2022-12-24T17:06:42;7.50;99.90
22185;DHT22;11258;52.516;13.318;2022-12-24T17:09:09;7.50;99.90
22185;DHT22;11258;52.516;13.318;2022-12-24T17:11:35;7.50;99.90
22185;DHT22;11258;52.516;13.318;2022-12-24T17:14:01;7.50;99.90
22185;DHT22;11258;52.516;13.318;2022-12-24T17:16:27;7.60;99.90
22185;DHT22;11258;52.516;13.318;2022-12-24T17:18:53;7.60;99.90
22185;DHT22;11258;52.516;13.318;2022-12-24T17:21:19;7.50;99.90
22185;DHT22;11258;52.516;13.318;2022-12-24T17:23:45;7.50;99.90
22185;DHT22;11258;52.516;13.318;2022-12-24T17:26:11;7.50;99.90
22185;DHT22;11258;52.516;13.318;2022-12-24T17:28:37;7.50;99.90
22185;DHT22;11258;52.516;13.318;2022-12-24T17:31:11;7.50;99.90
22185;DHT22;11258;52.516;13.318;2022-12-24T17:33:37;7.50;99.90
22185;DHT22;11258;52.516;13.318;2022-12-24T17:36:03;7.50;99.90
22185;DHT22;11258;52.516;13.318;2022-12-24T17:38:29;7.60;99.90
22185;DHT22;11258;52.516;13.318;2022-12-24T17:43:26;7.60;99.90
22185;DHT22;11258;52.516;13.318;2022-12-24T17:45:52;7.70;99.90
22185;DHT22;11258;52.516;13.318;2022-12-24T17:48:17;7.70;99.90
22185;DHT22;11258;52.516;13.318;2022-12-24T17:50:43;7.70;99.90
22185;DHT22;11258;52.516;13.318;2022-12-24T17:53:09;7.70;99.90
22185;DHT22;11258;52.516;13.318;2022-12-24T17:55:40;7.80;99.90
22185;DHT22;11258;52.516;13.318;2022-12-24T17:58:05;7.80;99.90
22185;DHT22;11258;52.516;13.318;2022-12-24T18:00:32;7.80;99.90
22185;DHT22;11258;52.516;13.318;2022-12-24T18:02:58;7.80;99.90
22185;DHT22;11258;52.516;13.318;2022-12-24T18:05:23;7.80;99.90
22185;DHT22;11258;52.516;13.318;2022-12-24T18:07:49;7.80;99.90